X  Fermer Données météorologiques d'aviation de Metar     EHKD De Kooy Airport
Température
59°F Température
54°F Point de rosée
82% Humidité



Vent
10 MPH
16 KM/H
4 M/S
9 KTS



260°
O
Conditions actuelles

Nuages épars Nuages épars
Pression 1004.06 (hPa) - 29.65 (inHg)
Visibilité 6 (mile) - 9.7 (km)
Aéroport
Code de l'aéroport EHKD

Emplacement: De Kooy Airport
Distance: 34 (mi)

Metar:
EHKD 300725Z AUTO 26009KT 230V300 9999 SCT011 BKN014 BKN091 15/12 Q1004 GRN TEMPO SCT012 BKN015

Temps: 30-05-2024 09:25 CEST